sensor_id;sensor_type;location;lat;lon;timestamp;temperature;humidity
43414;DHT22;29013;49.676;8.606;2023-04-03T00:01:30;5.2;99.9
43414;DHT22;29013;49.676;8.606;2023-04-03T00:06:56;5.1;99.9
43414;DHT22;29013;49.676;8.606;2023-04-03T00:12:21;5.2;99.9
43414;DHT22;29013;49.676;8.606;2023-04-03T00:17:47;5.2;99.9
43414;DHT22;29013;49.676;8.606;2023-04-03T00:23:12;5.3;99.9
43414;DHT22;29013;49.676;8.606;2023-04-03T00:28:38;5.3;99.9
43414;DHT22;29013;49.676;8.606;2023-04-03T00:34:01;5.2;99.9
43414;DHT22;29013;49.676;8.606;2023-04-03T00:39:20;5.2;99.9
43414;DHT22;29013;49.676;8.606;2023-04-03T00:50:40;4.9;99.9
43414;DHT22;29013;49.676;8.606;2023-04-03T00:56:02;4.6;99.9
43414;DHT22;29013;49.676;8.606;2023-04-03T01:01:28;4.4;99.9
43414;DHT22;29013;49.676;8.606;2023-04-03T01:06:50;4.3;99.9
43414;DHT22;29013;49.676;8.606;2023-04-03T01:12:18;4.2;99.9
43414;DHT22;29013;49.676;8.606;2023-04-03T01:17:37;4.3;99.9
43414;DHT22;29013;49.676;8.606;2023-04-03T01:23:04;4.3;99.9
43414;DHT22;29013;49.676;8.606;2023-04-03T01:28:28;4.3;99.9
43414;DHT22;29013;49.676;8.606;2023-04-03T01:33:53;4.3;99.9
43414;DHT22;29013;49.676;8.606;2023-04-03T01:39:18;4.4;99.9
43414;DHT22;29013;49.676;8.606;2023-04-03T01:44:41;4.4;99.9
43414;DHT22;29013;49.676;8.606;2023-04-03T01:50:06;4.3;99.9
43414;DHT22;29013;49.676;8.606;2023-04-03T01:55:50;4.3;99.9
43414;DHT22;29013;49.676;8.606;2023-04-03T02:01:13;4.3;99.9
43414;DHT22;29013;49.676;8.606;2023-04-03T02:06:33;4.0;99.9
43414;DHT22;29013;49.676;8.606;2023-04-03T02:11:59;3.7;99.9
43414;DHT22;29013;49.676;8.606;2023-04-03T02:17:24;3.5;99.9
43414;DHT22;29013;49.676;8.606;2023-04-03T02:22:50;3.4;99.9
43414;DHT22;29013;49.676;8.606;2023-04-03T02:28:15;3.3;99.9
43414;DHT22;29013;49.676;8.606;2023-04-03T02:33:40;3.2;99.9
43414;DHT22;29013;49.676;8.606;2023-04-03T02:39:03;3.4;99.9
43414;DHT22;29013;49.676;8.606;2023-04-03T02:44:51;3.5;99.9
43414;DHT22;29013;49.676;8.606;2023-04-03T02:50:15;3.7;99.9
43414;DHT22;29013;49.676;8.606;2023-04-03T02:55:37;3.7;99.9
43414;DHT22;29013;49.676;8.606;2023-04-03T03:01:02;3.7;99.9
43414;DHT22;29013;49.676;8.606;2023-04-03T03:06:27;3.7;99.9
43414;DHT22;29013;49.676;8.606;2023-04-03T03:11:52;3.7;99.9
43414;DHT22;29013;49.676;8.606;2023-04-03T03:17:17;3.5;99.9
43414;DHT22;29013;49.676;8.606;2023-04-03T03:22:40;3.2;99.9
43414;DHT22;29013;49.676;8.606;2023-04-03T03:28:04;3.0;99.9
43414;DHT22;29013;49.676;8.606;2023-04-03T03:33:34;2.9;99.9
43414;DHT22;29013;49.676;8.606;2023-04-03T03:38:59;2.8;99.9
43414;DHT22;29013;49.676;8.606;2023-04-03T03:44:23;2.7;99.9
43414;DHT22;29013;49.676;8.606;2023-04-03T03:49:48;2.7;99.9
43414;DHT22;29013;49.676;8.606;2023-04-03T03:55:12;2.6;99.9
43414;DHT22;29013;49.676;8.606;2023-04-03T04:00:32;2.6;99.9
43414;DHT22;29013;49.676;8.606;2023-04-03T04:05:56;2.4;99.9
43414;DHT22;29013;49.676;8.606;2023-04-03T04:11:21;2.3;99.9
43414;DHT22;29013;49.676;8.606;2023-04-03T04:16:46;2.3;99.9
43414;DHT22;29013;49.676;8.606;2023-04-03T04:22:11;2.5;99.9
43414;DHT22;29013;49.676;8.606;2023-04-03T04:27:35;2.6;99.9
43414;DHT22;29013;49.676;8.606;2023-04-03T04:33:00;2.8;99.9
43414;DHT22;29013;49.676;8.606;2023-04-03T04:38:25;2.9;99.9
43414;DHT22;29013;49.676;8.606;2023-04-03T04:43:49;3.0;99.9
43414;DHT22;29013;49.676;8.606;2023-04-03T04:49:14;3.1;99.9
43414;DHT22;29013;49.676;8.606;2023-04-03T04:54:39;3.2;99.9
43414;DHT22;29013;49.676;8.606;2023-04-03T05:00:10;3.3;99.9
43414;DHT22;29013;49.676;8.606;2023-04-03T05:05:29;3.4;99.9
43414;DHT22;29013;49.676;8.606;2023-04-03T05:10:54;3.5;99.9
43414;DHT22;29013;49.676;8.606;2023-04-03T05:16:40;3.4;99.9
43414;DHT22;29013;49.676;8.606;2023-04-03T05:22:04;3.6;99.9
43414;DHT22;29013;49.676;8.606;2023-04-03T05:27:30;3.3;99.9
43414;DHT22;29013;49.676;8.606;2023-04-03T05:32:53;3.1;99.9
43414;DHT22;29013;49.676;8.606;2023-04-03T05:38:18;2.9;99.9
43414;DHT22;29013;49.676;8.606;2023-04-03T05:44:21;2.8;99.9
43414;DHT22;29013;49.676;8.606;2023-04-03T05:49:44;3.0;99.9
43414;DHT22;29013;49.676;8.606;2023-04-03T05:55:09;3.0;99.9
43414;DHT22;29013;49.676;8.606;2023-04-03T06:00:31;3.2;99.9
43414;DHT22;29013;49.676;8.606;2023-04-03T06:05:55;3.5;99.9
43414;DHT22;29013;49.676;8.606;2023-04-03T06:11:19;3.9;99.9
43414;DHT22;29013;49.676;8.606;2023-04-03T06:16:43;4.2;99.9
43414;DHT22;29013;49.676;8.606;2023-04-03T06:22:07;4.5;99.9
43414;DHT22;29013;49.676;8.606;2023-04-03T06:27:34;4.8;99.9
43414;DHT22;29013;49.676;8.606;2023-04-03T06:32:59;5.0;99.9
43414;DHT22;29013;49.676;8.606;2023-04-03T06:38:24;5.3;99.9
43414;DHT22;29013;49.676;8.606;2023-04-03T06:43:44;5.6;99.9
43414;DHT22;29013;49.676;8.606;2023-04-03T06:49:08;5.9;99.9
43414;DHT22;29013;49.676;8.606;2023-04-03T06:54:33;6.1;99.9
43414;DHT22;29013;49.676;8.606;2023-04-03T06:59:56;6.3;99.9
43414;DHT22;29013;49.676;8.606;2023-04-03T07:05:23;6.5;99.9
43414;DHT22;29013;49.676;8.606;2023-04-03T07:10:48;6.7;99.9
43414;DHT22;29013;49.676;8.606;2023-04-03T07:16:14;6.7;99.9
43414;DHT22;29013;49.676;8.606;2023-04-03T07:21:39;6.7;99.9
43414;DHT22;29013;49.676;8.606;2023-04-03T07:27:04;6.7;99.9
43414;DHT22;29013;49.676;8.606;2023-04-03T07:32:30;6.7;99.9
43414;DHT22;29013;49.676;8.606;2023-04-03T07:37:55;6.7;99.9
43414;DHT22;29013;49.676;8.606;2023-04-03T07:43:21;6.7;99.9
43414;DHT22;29013;49.676;8.606;2023-04-03T07:48:46;6.9;99.9
43414;DHT22;29013;49.676;8.606;2023-04-03T07:54:11;6.9;99.9
43414;DHT22;29013;49.676;8.606;2023-04-03T07:59:37;7.0;99.9
43414;DHT22;29013;49.676;8.606;2023-04-03T08:05:03;7.0;99.9
43414;DHT22;29013;49.676;8.606;2023-04-03T08:10:31;7.1;99.4
43414;DHT22;29013;49.676;8.606;2023-04-03T08:15:55;7.3;98.5
43414;DHT22;29013;49.676;8.606;2023-04-03T08:21:18;7.6;97.5
43414;DHT22;29013;49.676;8.606;2023-04-03T08:26:41;7.9;96.7
43414;DHT22;29013;49.676;8.606;2023-04-03T08:32:08;8.3;98.5
43414;DHT22;29013;49.676;8.606;2023-04-03T08:37:31;8.6;97.4
43414;DHT22;29013;49.676;8.606;2023-04-03T08:43:01;8.8;96.2
43414;DHT22;29013;49.676;8.606;2023-04-03T08:48:23;9.0;95.7
43414;DHT22;29013;49.676;8.606;2023-04-03T08:53:51;9.0;95.4
43414;DHT22;29013;49.676;8.606;2023-04-03T08:59:16;8.9;95.2
43414;DHT22;29013;49.676;8.606;2023-04-03T09:04:37;8.7;93.9
43414;DHT22;29013;49.676;8.606;2023-04-03T09:10:02;8.5;93.8
43414;DHT22;29013;49.676;8.606;2023-04-03T09:15:23;8.4;94.6
43414;DHT22;29013;49.676;8.606;2023-04-03T09:20:51;8.4;94.0
43414;DHT22;29013;49.676;8.606;2023-04-03T09:26:10;8.6;93.9
43414;DHT22;29013;49.676;8.606;2023-04-03T09:31:37;9.0;93.4
43414;DHT22;29013;49.676;8.606;2023-04-03T09:36:59;9.3;91.6
43414;DHT22;29013;49.676;8.606;2023-04-03T09:42:23;9.5;92.6
43414;DHT22;29013;49.676;8.606;2023-04-03T09:47:48;9.8;90.3
43414;DHT22;29013;49.676;8.606;2023-04-03T09:53:34;9.7;90.3
43414;DHT22;29013;49.676;8.606;2023-04-03T09:59:16;10.0;90.1
43414;DHT22;29013;49.676;8.606;2023-04-03T10:04:49;10.1;87.1
43414;DHT22;29013;49.676;8.606;2023-04-03T10:10:36;10.2;87.0
43414;DHT22;29013;49.676;8.606;2023-04-03T10:15:59;10.4;87.2
43414;DHT22;29013;49.676;8.606;2023-04-03T10:21:28;10.4;84.7
43414;DHT22;29013;49.676;8.606;2023-04-03T10:26:52;10.5;86.0
43414;DHT22;29013;49.676;8.606;2023-04-03T10:32:26;10.2;81.9
43414;DHT22;29013;49.676;8.606;2023-04-03T10:37:54;10.4;85.3
43414;DHT22;29013;49.676;8.606;2023-04-03T10:43:39;10.7;86.1
43414;DHT22;29013;49.676;8.606;2023-04-03T10:49:16;11.0;86.3
43414;DHT22;29013;49.676;8.606;2023-04-03T10:54:36;11.0;83.8
43414;DHT22;29013;49.676;8.606;2023-04-03T10:59:59;11.1;85.2
43414;DHT22;29013;49.676;8.606;2023-04-03T11:05:29;11.2;88.4
43414;DHT22;29013;49.676;8.606;2023-04-03T11:10:50;11.3;82.9
43414;DHT22;29013;49.676;8.606;2023-04-03T11:16:17;11.3;83.0
43414;DHT22;29013;49.676;8.606;2023-04-03T11:21:42;11.5;84.8
43414;DHT22;29013;49.676;8.606;2023-04-03T11:27:08;11.6;81.0
43414;DHT22;29013;49.676;8.606;2023-04-03T11:32:48;11.7;81.2
43414;DHT22;29013;49.676;8.606;2023-04-03T11:38:07;11.8;79.7
43414;DHT22;29013;49.676;8.606;2023-04-03T11:43:31;12.2;83.1
43414;DHT22;29013;49.676;8.606;2023-04-03T11:48:54;12.3;81.1
43414;DHT22;29013;49.676;8.606;2023-04-03T12:12:21;11.6;76.7
43414;DHT22;29013;49.676;8.606;2023-04-03T12:17:59;11.4;83.4
43414;DHT22;29013;49.676;8.606;2023-04-03T12:23:34;11.8;77.5
43414;DHT22;29013;49.676;8.606;2023-04-03T12:28:51;12.2;73.5
43414;DHT22;29013;49.676;8.606;2023-04-03T12:34:30;12.1;75.1
43414;DHT22;29013;49.676;8.606;2023-04-03T12:39:58;11.9;74.8
43414;DHT22;29013;49.676;8.606;2023-04-03T12:45:19;11.8;76.8
43414;DHT22;29013;49.676;8.606;2023-04-03T12:50:38;11.8;74.9
43414;DHT22;29013;49.676;8.606;2023-04-03T12:56:21;11.7;78.8
43414;DHT22;29013;49.676;8.606;2023-04-03T13:01:41;11.8;74.7
43414;DHT22;29013;49.676;8.606;2023-04-03T13:07:41;11.9;74.0
43414;DHT22;29013;49.676;8.606;2023-04-03T13:13:14;12.2;78.4
43414;DHT22;29013;49.676;8.606;2023-04-03T13:18:37;12.2;79.8
43414;DHT22;29013;49.676;8.606;2023-04-03T13:24:02;12.2;74.8
43414;DHT22;29013;49.676;8.606;2023-04-03T13:29:27;12.3;76.3
43414;DHT22;29013;49.676;8.606;2023-04-03T13:34:50;12.3;71.9
43414;DHT22;29013;49.676;8.606;2023-04-03T13:40:14;11.9;74.7
43414;DHT22;29013;49.676;8.606;2023-04-03T13:45:40;11.8;69.6
43414;DHT22;29013;49.676;8.606;2023-04-03T13:51:05;12.0;72.1
43414;DHT22;29013;49.676;8.606;2023-04-03T13:56:29;12.2;75.4
43414;DHT22;29013;49.676;8.606;2023-04-03T14:01:49;12.1;67.4
43414;DHT22;29013;49.676;8.606;2023-04-03T14:07:11;11.8;69.2
43414;DHT22;29013;49.676;8.606;2023-04-03T14:12:34;11.7;69.6
43414;DHT22;29013;49.676;8.606;2023-04-03T14:17:57;11.6;66.8
43414;DHT22;29013;49.676;8.606;2023-04-03T14:23:24;11.8;69.2
43414;DHT22;29013;49.676;8.606;2023-04-03T14:28:48;12.0;72.2
43414;DHT22;29013;49.676;8.606;2023-04-03T14:34:10;12.0;69.4
43414;DHT22;29013;49.676;8.606;2023-04-03T14:39:34;11.9;66.1
43414;DHT22;29013;49.676;8.606;2023-04-03T14:45:19;11.8;65.4
43414;DHT22;29013;49.676;8.606;2023-04-03T14:50:42;11.9;64.3
43414;DHT22;29013;49.676;8.606;2023-04-03T14:56:12;11.8;63.6
43414;DHT22;29013;49.676;8.606;2023-04-03T15:01:37;12.0;66.8
43414;DHT22;29013;49.676;8.606;2023-04-03T15:07:00;11.9;63.8
43414;DHT22;29013;49.676;8.606;2023-04-03T15:12:25;11.9;66.0
43414;DHT22;29013;49.676;8.606;2023-04-03T15:17:51;11.9;63.3
43414;DHT22;29013;49.676;8.606;2023-04-03T15:23:14;11.9;63.8
43414;DHT22;29013;49.676;8.606;2023-04-03T15:28:39;12.0;62.6
43414;DHT22;29013;49.676;8.606;2023-04-03T15:34:04;12.2;66.6
43414;DHT22;29013;49.676;8.606;2023-04-03T15:39:30;12.4;62.5
43414;DHT22;29013;49.676;8.606;2023-04-03T15:44:56;12.5;66.9
43414;DHT22;29013;49.676;8.606;2023-04-03T15:50:22;12.5;65.6
43414;DHT22;29013;49.676;8.606;2023-04-03T15:55:47;12.5;60.9
43414;DHT22;29013;49.676;8.606;2023-04-03T16:01:13;12.5;63.1
43414;DHT22;29013;49.676;8.606;2023-04-03T16:06:38;12.5;61.1
43414;DHT22;29013;49.676;8.606;2023-04-03T16:12:03;12.4;58.5
43414;DHT22;29013;49.676;8.606;2023-04-03T16:17:28;12.2;59.1
43414;DHT22;29013;49.676;8.606;2023-04-03T16:22:55;12.2;59.8
43414;DHT22;29013;49.676;8.606;2023-04-03T16:28:18;12.1;62.6
43414;DHT22;29013;49.676;8.606;2023-04-03T16:33:42;11.9;57.6
43414;DHT22;29013;49.676;8.606;2023-04-03T16:39:04;11.9;61.5
43414;DHT22;29013;49.676;8.606;2023-04-03T16:44:27;11.8;58.7
43414;DHT22;29013;49.676;8.606;2023-04-03T16:49:52;11.8;61.0
43414;DHT22;29013;49.676;8.606;2023-04-03T16:55:14;11.7;60.2
43414;DHT22;29013;49.676;8.606;2023-04-03T17:00:39;11.7;60.3
43414;DHT22;29013;49.676;8.606;2023-04-03T17:06:07;11.5;60.9
43414;DHT22;29013;49.676;8.606;2023-04-03T17:11:32;11.4;62.2
43414;DHT22;29013;49.676;8.606;2023-04-03T17:16:56;11.2;62.2
43414;DHT22;29013;49.676;8.606;2023-04-03T17:22:21;10.9;60.8
43414;DHT22;29013;49.676;8.606;2023-04-03T17:27:41;10.6;61.7
43414;DHT22;29013;49.676;8.606;2023-04-03T17:33:05;10.4;61.2
43414;DHT22;29013;49.676;8.606;2023-04-03T17:38:32;10.1;63.7
43414;DHT22;29013;49.676;8.606;2023-04-03T17:43:56;9.6;65.2
43414;DHT22;29013;49.676;8.606;2023-04-03T17:50:14;9.3;65.6
43414;DHT22;29013;49.676;8.606;2023-04-03T17:55:37;9.4;63.8
43414;DHT22;29013;49.676;8.606;2023-04-03T18:01:07;9.3;64.8
43414;DHT22;29013;49.676;8.606;2023-04-03T18:06:31;9.1;64.8
43414;DHT22;29013;49.676;8.606;2023-04-03T18:11:56;8.9;65.0
43414;DHT22;29013;49.676;8.606;2023-04-03T18:17:22;8.7;66.4
43414;DHT22;29013;49.676;8.606;2023-04-03T18:22:48;8.6;66.6
43414;DHT22;29013;49.676;8.606;2023-04-03T18:28:14;8.5;67.8
43414;DHT22;29013;49.676;8.606;2023-04-03T18:33:38;8.5;69.0
43414;DHT22;29013;49.676;8.606;2023-04-03T18:39:07;8.4;69.9
43414;DHT22;29013;49.676;8.606;2023-04-03T18:44:32;8.3;70.5
43414;DHT22;29013;49.676;8.606;2023-04-03T18:50:19;8.0;71.7
43414;DHT22;29013;49.676;8.606;2023-04-03T18:55:43;7.9;70.9
43414;DHT22;29013;49.676;8.606;2023-04-03T19:01:08;7.8;71.3
43414;DHT22;29013;49.676;8.606;2023-04-03T19:06:33;7.6;72.3
43414;DHT22;29013;49.676;8.606;2023-04-03T19:11:57;7.6;72.9
43414;DHT22;29013;49.676;8.606;2023-04-03T19:17:21;7.6;73.0
43414;DHT22;29013;49.676;8.606;2023-04-03T19:22:46;7.5;72.4
43414;DHT22;29013;49.676;8.606;2023-04-03T19:28:13;7.4;74.7
43414;DHT22;29013;49.676;8.606;2023-04-03T19:33:36;7.4;73.2
43414;DHT22;29013;49.676;8.606;2023-04-03T19:39:01;7.3;73.5
43414;DHT22;29013;49.676;8.606;2023-04-03T19:44:26;7.2;73.3
43414;DHT22;29013;49.676;8.606;2023-04-03T19:49:49;7.2;73.3
43414;DHT22;29013;49.676;8.606;2023-04-03T19:55:10;7.0;73.7
43414;DHT22;29013;49.676;8.606;2023-04-03T20:00:34;6.8;73.1
43414;DHT22;29013;49.676;8.606;2023-04-03T20:06:21;6.6;81.5
43414;DHT22;29013;49.676;8.606;2023-04-03T20:11:41;6.6;74.8
43414;DHT22;29013;49.676;8.606;2023-04-03T20:17:07;6.5;76.0
43414;DHT22;29013;49.676;8.606;2023-04-03T20:22:33;6.5;74.3
43414;DHT22;29013;49.676;8.606;2023-04-03T20:27:53;6.5;74.6
43414;DHT22;29013;49.676;8.606;2023-04-03T20:33:19;6.5;75.2
43414;DHT22;29013;49.676;8.606;2023-04-03T20:38:43;6.5;74.2
43414;DHT22;29013;49.676;8.606;2023-04-03T20:44:08;6.4;74.5
43414;DHT22;29013;49.676;8.606;2023-04-03T20:49:36;6.3;74.3
43414;DHT22;29013;49.676;8.606;2023-04-03T20:55:01;6.1;76.1
43414;DHT22;29013;49.676;8.606;2023-04-03T21:00:55;5.8;76.9
43414;DHT22;29013;49.676;8.606;2023-04-03T21:23:57;5.7;76.3
43414;DHT22;29013;49.676;8.606;2023-04-03T21:29:22;5.7;76.5
43414;DHT22;29013;49.676;8.606;2023-04-03T21:34:47;5.8;77.2
43414;DHT22;29013;49.676;8.606;2023-04-03T21:40:12;5.8;77.3
43414;DHT22;29013;49.676;8.606;2023-04-03T21:45:36;5.8;77.9
43414;DHT22;29013;49.676;8.606;2023-04-03T21:51:04;5.7;77.4
43414;DHT22;29013;49.676;8.606;2023-04-03T21:56:27;5.6;77.1
43414;DHT22;29013;49.676;8.606;2023-04-03T22:01:52;5.4;78.2
43414;DHT22;29013;49.676;8.606;2023-04-03T22:07:17;5.3;77.4
43414;DHT22;29013;49.676;8.606;2023-04-03T22:12:41;5.2;78.6
43414;DHT22;29013;49.676;8.606;2023-04-03T22:18:06;5.1;79.1
43414;DHT22;29013;49.676;8.606;2023-04-03T22:23:53;4.9;81.8
43414;DHT22;29013;49.676;8.606;2023-04-03T22:29:14;5.0;80.0
43414;DHT22;29013;49.676;8.606;2023-04-03T22:34:40;5.0;78.5
43414;DHT22;29013;49.676;8.606;2023-04-03T22:40:04;5.0;78.2
43414;DHT22;29013;49.676;8.606;2023-04-03T22:45:28;5.1;77.9
43414;DHT22;29013;49.676;8.606;2023-04-03T22:50:51;5.1;77.7
43414;DHT22;29013;49.676;8.606;2023-04-03T22:56:16;5.1;77.2
43414;DHT22;29013;49.676;8.606;2023-04-03T23:01:42;5.0;78.0
43414;DHT22;29013;49.676;8.606;2023-04-03T23:07:05;4.8;78.0
43414;DHT22;29013;49.676;8.606;2023-04-03T23:12:29;4.8;79.2
43414;DHT22;29013;49.676;8.606;2023-04-03T23:17:54;4.6;78.9
43414;DHT22;29013;49.676;8.606;2023-04-03T23:23:15;4.6;79.6
43414;DHT22;29013;49.676;8.606;2023-04-03T23:28:38;4.7;81.2
43414;DHT22;29013;49.676;8.606;2023-04-03T23:34:02;4.7;79.3
43414;DHT22;29013;49.676;8.606;2023-04-03T23:39:26;4.8;79.1
43414;DHT22;29013;49.676;8.606;2023-04-03T23:44:51;4.7;78.3
43414;DHT22;29013;49.676;8.606;2023-04-03T23:50:18;4.7;81.1
43414;DHT22;29013;49.676;8.606;2023-04-03T23:55:41;4.7;78.1
